Time;durP1;ratioP1;P1;durP2;ratioP2;P2;SDS_P1;SDS_P2;PMS_P1;PMS_P2;Temp;Humidity;BMP_temperature;BMP_pressure;BME280_temperature;BME280_humidity;BME280_pressure;Samples;Min_cycle;Max_cycle;Signal;HPM_P1;HPM_P2
2023/08/22 00:02:17;;;;;;;4.15;1.30;;;20.90;69.50;;;;;;5011666;28;20388;-68
2023/08/22 00:04:43;;;;;;;2.55;1.20;;;20.80;69.40;;;;;;5010888;28;20064;-67
2023/08/22 00:07:09;;;;;;;1.85;0.88;;;20.80;69.40;;;;;;5017915;28;20037;-69
2023/08/22 00:09:35;;;;;;;3.30;1.42;;;20.80;69.40;;;;;;5009372;28;20037;-68
2023/08/22 00:12:01;;;;;;;4.53;1.52;;;20.80;69.40;;;;;;5004793;28;20488;-68
2023/08/22 00:14:27;;;;;;;1.80;1.10;;;20.80;69.40;;;;;;4992719;28;20133;-68
2023/08/22 00:16:53;;;;;;;4.45;1.60;;;20.80;69.50;;;;;;5008583;28;20026;-68
2023/08/22 00:19:19;;;;;;;3.08;1.17;;;20.80;69.50;;;;;;5019521;28;20201;-69
2023/08/22 00:21:45;;;;;;;4.38;1.55;;;20.80;69.50;;;;;;5016193;28;20064;-68
2023/08/22 00:24:11;;;;;;;1.85;0.90;;;20.80;69.60;;;;;;5014094;28;20431;-69
2023/08/22 00:26:37;;;;;;;3.28;1.52;;;20.80;69.60;;;;;;5013625;28;20036;-69
2023/08/22 00:29:03;;;;;;;4.72;1.92;;;20.80;69.70;;;;;;5018273;28;20040;-69
2023/08/22 00:31:29;;;;;;;1.85;1.35;;;20.80;69.70;;;;;;5015842;28;20034;-72
2023/08/22 00:33:58;;;;;;;3.45;1.33;;;20.80;69.80;;;;;;5009836;28;20030;-70
2023/08/22 00:36:24;;;;;;;7.18;1.95;;;20.80;69.80;;;;;;5010033;28;20517;-70
2023/08/22 00:38:50;;;;;;;2.17;1.17;;;20.70;69.60;;;;;;5009325;28;20671;-69
2023/08/22 00:41:16;;;;;;;2.22;1.48;;;20.70;69.70;;;;;;5013950;28;20117;-71
2023/08/22 00:43:42;;;;;;;1.40;0.90;;;20.70;69.70;;;;;;5019211;28;20092;-68
2023/08/22 00:46:08;;;;;;;1.63;1.00;;;20.70;69.80;;;;;;5017993;28;20057;-68
2023/08/22 00:48:34;;;;;;;2.40;1.05;;;20.60;69.60;;;;;;5017163;28;20049;-70
2023/08/22 00:51:01;;;;;;;3.15;1.15;;;20.70;69.80;;;;;;5015644;28;20456;-69
2023/08/22 00:53:27;;;;;;;2.80;1.20;;;20.70;69.90;;;;;;5015482;28;20032;-69
2023/08/22 00:55:53;;;;;;;3.08;1.55;;;20.70;69.90;;;;;;5014217;28;20250;-68
2023/08/22 00:58:19;;;;;;;2.58;1.02;;;20.60;69.80;;;;;;5013857;28;20549;-69
2023/08/22 01:00:46;;;;;;;1.33;0.85;;;20.60;69.90;;;;;;5014735;28;20272;-68
2023/08/22 01:03:12;;;;;;;2.53;0.90;;;20.60;69.90;;;;;;5012040;28;20066;-69
2023/08/22 01:05:46;;;;;;;3.50;1.20;;;20.60;70.00;;;;;;5013801;28;20057;-70
2023/08/22 01:08:18;;;;;;;1.52;1.40;;;20.60;70.10;;;;;;5016247;28;20639;-68
2023/08/22 01:10:50;;;;;;;1.45;0.90;;;20.60;70.10;;;;;;5011389;28;20029;-68
2023/08/22 01:13:31;;;;;;;1.90;1.20;;;20.60;70.10;;;;;;5011979;28;20037;-69
2023/08/22 01:15:58;;;;;;;3.58;1.17;;;20.60;70.20;;;;;;5016102;28;20132;-69
2023/08/22 01:18:25;;;;;;;2.70;0.90;;;20.60;70.70;;;;;;5008155;28;20033;-69
2023/08/22 01:20:51;;;;;;;2.17;0.90;;;20.50;70.00;;;;;;5013899;28;20045;-69
2023/08/22 01:23:17;;;;;;;1.70;1.05;;;20.50;70.00;;;;;;5009872;28;20520;-68
2023/08/22 01:25:45;;;;;;;2.40;1.05;;;20.50;70.10;;;;;;5005121;28;20038;-69
2023/08/22 01:28:26;;;;;;;2.80;0.88;;;20.50;70.10;;;;;;5008115;28;20129;-71
2023/08/22 01:31:04;;;;;;;1.30;0.73;;;20.50;70.30;;;;;;5008005;28;20053;-69
2023/08/22 01:33:33;;;;;;;2.95;1.20;;;20.50;70.30;;;;;;5009818;28;20417;-69
2023/08/22 01:36:01;;;;;;;1.65;0.93;;;20.50;70.30;;;;;;5019170;28;20030;-70
2023/08/22 01:38:29;;;;;;;2.20;0.90;;;20.40;70.20;;;;;;5005714;28;20064;-69
2023/08/22 01:40:57;;;;;;;2.45;1.10;;;20.40;70.30;;;;;;5017410;28;20033;-69
2023/08/22 01:43:25;;;;;;;1.95;1.00;;;20.40;70.30;;;;;;5008293;28;20082;-70
2023/08/22 01:45:50;;;;;;;2.80;1.17;;;20.40;70.30;;;;;;5016795;28;20132;-70
2023/08/22 01:48:16;;;;;;;1.38;0.80;;;20.40;70.40;;;;;;5015624;28;20030;-69
2023/08/22 01:50:43;;;;;;;2.50;1.25;;;20.30;70.30;;;;;;5014366;28;20054;-71
2023/08/22 01:53:11;;;;;;;3.03;0.90;;;20.30;70.40;;;;;;5006631;28;20029;-69
2023/08/22 01:55:40;;;;;;;3.10;1.00;;;20.30;70.50;;;;;;5036847;28;20040;-69
2023/08/22 01:58:10;;;;;;;3.83;1.00;;;20.20;70.40;;;;;;5016475;28;20018;-70
2023/08/22 02:00:38;;;;;;;3.05;1.02;;;20.20;70.50;;;;;;5020162;28;20524;-72
2023/08/22 02:03:05;;;;;;;2.40;1.42;;;20.20;70.60;;;;;;5018817;28;20049;-72
2023/08/22 02:05:31;;;;;;;4.97;2.05;;;20.20;70.70;;;;;;5024898;28;20554;-69
2023/08/22 02:07:59;;;;;;;2.22;0.98;;;20.20;70.70;;;;;;5012326;28;20029;-71
2023/08/22 02:10:25;;;;;;;2.08;0.90;;;20.20;70.80;;;;;;5014979;28;20112;-70
2023/08/22 02:12:51;;;;;;;2.60;1.83;;;20.20;70.90;;;;;;5011296;28;20025;-69
2023/08/22 02:15:20;;;;;;;3.72;1.08;;;20.10;70.70;;;;;;5017408;28;20067;-72
2023/08/22 02:17:47;;;;;;;1.80;0.90;;;20.20;70.90;;;;;;5021842;28;20115;-69
2023/08/22 02:20:14;;;;;;;2.63;1.20;;;20.10;70.80;;;;;;5023752;28;20391;-71
2023/08/22 02:22:40;;;;;;;1.98;1.70;;;20.10;70.90;;;;;;5015826;28;20450;-69
2023/08/22 02:25:08;;;;;;;1.90;1.20;;;20.10;70.90;;;;;;5011373;28;20045;-70
2023/08/22 02:27:34;;;;;;;3.72;1.27;;;20.10;70.90;;;;;;5005722;28;20041;-70
2023/08/22 02:30:00;;;;;;;1.90;1.20;;;20.10;71.00;;;;;;5019058;28;20049;-70
2023/08/22 02:32:28;;;;;;;1.25;1.00;;;20.10;71.10;;;;;;5019686;28;20052;-70
2023/08/22 02:34:54;;;;;;;2.30;1.10;;;20.10;71.10;;;;;;5016939;28;20057;-71
2023/08/22 02:37:20;;;;;;;1.60;1.20;;;20.10;71.20;;;;;;5022526;28;20029;-70
2023/08/22 02:39:46;;;;;;;1.70;1.27;;;20.10;71.30;;;;;;5019090;28;20038;-71
2023/08/22 02:42:12;;;;;;;1.98;1.27;;;20.10;71.30;;;;;;5012597;28;20029;-70
2023/08/22 02:44:40;;;;;;;1.08;1.02;;;20.10;71.40;;;;;;5017916;28;20053;-73
2023/08/22 02:47:07;;;;;;;3.58;1.83;;;20.10;71.50;;;;;;5019601;28;20037;-68
2023/08/22 02:49:34;;;;;;;2.50;1.17;;;20.10;71.50;;;;;;5019870;28;20156;-68
2023/08/22 02:52:00;;;;;;;1.15;1.05;;;20.10;71.60;;;;;;5013143;28;20116;-69
2023/08/22 02:54:26;;;;;;;2.10;1.20;;;20.10;71.70;;;;;;5018635;28;20037;-68
2023/08/22 02:56:52;;;;;;;2.50;1.83;;;20.10;71.80;;;;;;5019583;28;20271;-70
2023/08/22 02:59:20;;;;;;;2.88;1.50;;;20.10;71.80;;;;;;5021340;28;20033;-67
2023/08/22 03:01:46;;;;;;;1.95;1.40;;;20.10;71.80;;;;;;5018251;28;20036;-72
2023/08/22 03:04:13;;;;;;;2.53;1.55;;;20.10;71.90;;;;;;5021607;28;20044;-71
2023/08/22 03:06:39;;;;;;;3.65;1.80;;;20.00;71.70;;;;;;5019362;28;20025;-72
2023/08/22 03:09:06;;;;;;;2.83;1.63;;;20.10;71.90;;;;;;5011925;28;20502;-69
2023/08/22 03:11:33;;;;;;;2.00;1.60;;;20.10;72.00;;;;;;5017528;28;20048;-67
2023/08/22 03:14:00;;;;;;;4.18;1.27;;;20.00;71.90;;;;;;5015658;28;20029;-68
2023/08/22 03:16:27;;;;;;;3.63;1.60;;;20.10;72.10;;;;;;5020797;28;20029;-67
2023/08/22 03:18:54;;;;;;;3.20;1.40;;;20.10;72.20;;;;;;5020668;28;20355;-67
2023/08/22 03:21:20;;;;;;;3.00;1.40;;;20.00;72.00;;;;;;5020440;28;20083;-68
2023/08/22 03:23:47;;;;;;;3.28;1.20;;;20.00;72.20;;;;;;5017283;28;20086;-71
2023/08/22 03:26:16;;;;;;;3.75;1.58;;;20.00;72.20;;;;;;5010694;28;20072;-68
2023/08/22 03:28:42;;;;;;;4.45;1.40;;;20.00;72.30;;;;;;5017516;28;20120;-67
2023/08/22 03:31:09;;;;;;;2.45;1.50;;;20.00;72.30;;;;;;5015129;28;20026;-68
2023/08/22 03:33:35;;;;;;;1.80;1.25;;;20.00;72.30;;;;;;5020073;28;20036;-68
2023/08/22 03:36:05;;;;;;;1.48;0.95;;;20.00;72.40;;;;;;5021019;28;20033;-69
2023/08/22 03:38:31;;;;;;;2.25;1.10;;;20.00;72.40;;;;;;5001976;28;20361;-69
2023/08/22 03:40:57;;;;;;;1.80;1.10;;;20.00;72.50;;;;;;5016035;28;20204;-72
2023/08/22 03:43:24;;;;;;;1.27;1.17;;;20.00;72.60;;;;;;5017011;28;20548;-73
2023/08/22 03:45:51;;;;;;;1.25;1.10;;;20.00;73.10;;;;;;5008464;28;20042;-69
2023/08/22 03:48:17;;;;;;;2.47;1.27;;;19.90;72.50;;;;;;5026636;28;20149;-71
2023/08/22 03:50:43;;;;;;;1.25;0.98;;;19.90;72.50;;;;;;5027518;28;20224;-68
2023/08/22 03:53:10;;;;;;;1.55;1.10;;;19.90;72.60;;;;;;5017325;28;20022;-68
2023/08/22 03:55:38;;;;;;;3.85;1.55;;;19.90;72.60;;;;;;5022382;28;20049;-73
2023/08/22 03:58:04;;;;;;;2.90;1.17;;;19.90;72.60;;;;;;5026133;28;20092;-72
2023/08/22 04:00:31;;;;;;;1.85;1.27;;;19.90;72.70;;;;;;5028418;28;20056;-71
2023/08/22 04:02:58;;;;;;;2.67;0.90;;;19.90;72.80;;;;;;5017413;28;20492;-77
2023/08/22 04:05:25;;;;;;;1.48;1.00;;;19.90;72.80;;;;;;5017138;28;20432;-70
2023/08/22 04:07:52;;;;;;;1.25;0.85;;;19.90;72.90;;;;;;5020272;28;20044;-73
2023/08/22 04:10:18;;;;;;;2.72;0.98;;;19.90;72.90;;;;;;5008350;28;20061;-67
2023/08/22 04:12:46;;;;;;;1.40;1.08;;;19.90;73.00;;;;;;5018561;28;20033;-68
2023/08/22 04:15:15;;;;;;;2.03;1.15;;;19.80;72.80;;;;;;5014385;28;20029;-73
2023/08/22 04:17:41;;;;;;;2.70;0.93;;;19.90;73.10;;;;;;5019164;28;20177;-70
2023/08/22 04:20:10;;;;;;;2.00;1.20;;;19.90;73.10;;;;;;5009633;28;20075;-68
2023/08/22 04:22:39;;;;;;;2.10;1.25;;;19.80;73.00;;;;;;5013567;28;20049;-71
2023/08/22 04:25:10;;;;;;;;;;;19.90;73.20;;;;;;5012135;28;20428;-70
2023/08/22 04:27:36;;;;;;;2.85;1.23;;;19.80;73.00;;;;;;5007485;28;19995;-69
2023/08/22 04:30:03;;;;;;;2.70;1.20;;;19.80;72.90;;;;;;5015535;28;20396;-70
2023/08/22 04:32:31;;;;;;;2.60;1.10;;;19.80;73.00;;;;;;5004593;28;20044;-72
2023/08/22 04:34:57;;;;;;;3.40;1.23;;;19.80;73.10;;;;;;5033573;28;20510;-68
2023/08/22 04:37:24;;;;;;;1.52;0.80;;;19.80;73.10;;;;;;5030279;28;20021;-71
2023/08/22 04:39:52;;;;;;;3.05;0.70;;;19.80;73.20;;;;;;5018432;28;20501;-70
2023/08/22 04:42:44;;;;;;;1.07;0.70;;;19.80;73.20;;;;;;5010537;28;20136;-68
2023/08/22 04:45:11;;;;;;;1.65;0.77;;;19.80;73.30;;;;;;5006145;28;20041;-73
2023/08/22 04:47:37;;;;;;;1.48;1.00;;;19.80;73.30;;;;;;5007652;28;20355;-67
2023/08/22 04:50:05;;;;;;;1.05;0.60;;;19.80;73.40;;;;;;5007571;28;20060;-68
2023/08/22 04:52:31;;;;;;;1.10;0.50;;;19.80;73.40;;;;;;5005691;28;20500;-68
2023/08/22 04:54:57;;;;;;;1.15;0.60;;;19.70;73.30;;;;;;5014068;28;20033;-69
2023/08/22 04:57:23;;;;;;;1.88;0.50;;;19.70;73.30;;;;;;5013039;28;20260;-68
2023/08/22 04:59:53;;;;;;;0.95;0.55;;;19.70;73.40;;;;;;5013057;28;20100;-69
2023/08/22 05:02:21;;;;;;;0.85;0.60;;;19.70;73.40;;;;;;5008032;28;20036;-70
2023/08/22 05:04:48;;;;;;;1.13;0.55;;;19.70;73.40;;;;;;5014145;28;20049;-69
2023/08/22 05:07:14;;;;;;;1.63;0.57;;;19.70;73.40;;;;;;5007352;28;20919;-69
2023/08/22 05:09:40;;;;;;;0.93;0.60;;;19.70;73.50;;;;;;5003092;28;20176;-66
2023/08/22 05:12:07;;;;;;;1.00;0.55;;;19.70;73.50;;;;;;5009322;28;20548;-69
2023/08/22 05:14:33;;;;;;;2.05;0.55;;;19.70;73.60;;;;;;5006159;28;20049;-69
2023/08/22 05:16:59;;;;;;;1.27;0.55;;;19.70;73.60;;;;;;5006143;28;20042;-71
2023/08/22 05:19:26;;;;;;;1.50;0.60;;;19.70;73.60;;;;;;5006713;28;20510;-70
2023/08/22 05:21:52;;;;;;;1.35;0.57;;;19.70;73.70;;;;;;5008500;28;20121;-71
2023/08/22 05:24:18;;;;;;;1.60;0.85;;;19.70;73.70;;;;;;5007989;28;20136;-69
2023/08/22 05:26:44;;;;;;;1.10;0.75;;;19.70;73.90;;;;;;5006212;28;20033;-70
2023/08/22 05:29:10;;;;;;;1.85;1.10;;;19.70;74.50;;;;;;5010758;28;20448;-68
2023/08/22 05:31:39;;;;;;;2.13;1.50;;;19.70;75.10;;;;;;5013330;28;20294;-68
2023/08/22 05:34:06;;;;;;;1.38;0.63;;;19.80;75.70;;;;;;5010872;28;20053;-69
2023/08/22 05:36:32;;;;;;;0.82;0.70;;;19.90;76.30;;;;;;5008645;28;20048;-71
2023/08/22 05:38:58;;;;;;;3.50;0.90;;;19.90;76.50;;;;;;4993767;28;20458;-69
2023/08/22 05:41:24;;;;;;;2.40;0.77;;;20.00;76.90;;;;;;5018664;28;20121;-68
2023/08/22 05:43:52;;;;;;;1.02;0.80;;;20.00;77.10;;;;;;5009789;28;20070;-69
2023/08/22 05:46:18;;;;;;;1.02;0.57;;;20.10;77.50;;;;;;5014994;28;20268;-68
2023/08/22 05:48:46;;;;;;;6.47;1.70;;;20.20;77.80;;;;;;5001945;28;20045;-68
2023/08/22 05:51:13;;;;;;;6.15;1.90;;;20.20;77.90;;;;;;5014227;28;20708;-68
2023/08/22 05:53:39;;;;;;;9.70;2.83;;;20.20;78.00;;;;;;5012060;28;20121;-68
2023/08/22 05:56:07;;;;;;;10.43;3.53;;;20.30;78.30;;;;;;5004413;28;20311;-70
2023/08/22 05:58:34;;;;;;;10.10;3.20;;;20.30;78.30;;;;;;5008230;28;20498;-68
2023/08/22 06:01:09;;;;;;;8.68;3.60;;;20.30;78.40;;;;;;5013287;28;20416;-70
2023/08/22 06:03:39;;;;;;;9.70;4.18;;;20.40;78.70;;;;;;5009692;28;20041;-69
2023/08/22 06:06:06;;;;;;;10.85;3.17;;;20.40;78.60;;;;;;5007895;28;20042;-73
2023/08/22 06:08:32;;;;;;;8.15;3.03;;;20.40;78.70;;;;;;5008597;28;20040;-69
2023/08/22 06:10:58;;;;;;;4.75;2.33;;;20.40;78.70;;;;;;5011297;28;20060;-70
2023/08/22 06:13:25;;;;;;;7.13;2.33;;;20.50;78.80;;;;;;5005481;28;20482;-69
2023/08/22 06:15:56;;;;;;;8.60;2.80;;;20.50;78.90;;;;;;5008875;28;20064;-69
2023/08/22 06:18:23;;;;;;;7.78;3.08;;;20.50;78.90;;;;;;5009989;28;20040;-70
2023/08/22 06:20:51;;;;;;;6.50;2.13;;;20.60;79.10;;;;;;5013837;28;20037;-70
2023/08/22 06:23:17;;;;;;;6.20;1.77;;;20.60;79.10;;;;;;5010702;28;20037;-69
2023/08/22 06:25:45;;;;;;;6.10;1.58;;;20.60;78.90;;;;;;5022524;28;20061;-70
2023/08/22 06:28:15;;;;;;;3.25;1.30;;;20.70;78.80;;;;;;5008680;28;20064;-72
2023/08/22 06:30:41;;;;;;;5.95;1.75;;;20.70;78.60;;;;;;5011707;28;20045;-72
2023/08/22 06:33:07;;;;;;;6.07;1.75;;;20.70;78.30;;;;;;5007732;28;20036;-71
2023/08/22 06:35:35;;;;;;;3.72;1.15;;;20.80;78.20;;;;;;4993908;28;20052;-69
2023/08/22 06:38:03;;;;;;;3.70;1.27;;;20.80;77.90;;;;;;5005305;28;20057;-70
2023/08/22 06:40:30;;;;;;;1.50;1.00;;;20.80;77.60;;;;;;5005990;28;20063;-70
2023/08/22 06:42:57;;;;;;;2.90;1.15;;;20.90;77.60;;;;;;5015989;28;20068;-74
2023/08/22 06:45:32;;;;;;;1.63;1.02;;;20.90;77.20;;;;;;5013502;28;20049;-70
2023/08/22 06:47:59;;;;;;;3.97;1.08;;;20.90;76.90;;;;;;5012866;28;20041;-70
2023/08/22 06:50:25;;;;;;;2.55;0.85;;;21.00;76.90;;;;;;5010182;28;20099;-69
2023/08/22 06:52:52;;;;;;;3.15;1.20;;;21.10;76.90;;;;;;5009526;28;20041;-69
2023/08/22 06:55:18;;;;;;;1.75;0.75;;;21.30;76.80;;;;;;5012117;28;20489;-69
2023/08/22 06:57:45;;;;;;;2.35;0.82;;;21.50;76.40;;;;;;5009338;28;20049;-69
2023/08/22 07:00:16;;;;;;;2.47;0.80;;;21.70;76.00;;;;;;5010749;28;20041;-69
2023/08/22 07:02:44;;;;;;;3.58;0.85;;;21.80;75.50;;;;;;5015521;28;20394;-69
2023/08/22 07:05:12;;;;;;;1.52;0.68;;;21.90;75.20;;;;;;5012615;28;20059;-69
2023/08/22 07:07:45;;;;;;;1.10;0.68;;;22.00;75.00;;;;;;5008698;28;20030;-70
2023/08/22 07:10:12;;;;;;;1.88;0.80;;;22.10;74.90;;;;;;5010886;28;20022;-70
2023/08/22 07:12:38;;;;;;;1.40;0.73;;;22.10;74.60;;;;;;5006366;28;20025;-71
2023/08/22 07:15:06;;;;;;;1.77;0.70;;;22.20;74.50;;;;;;5008549;28;20033;-70
2023/08/22 07:17:32;;;;;;;1.55;0.80;;;22.20;74.20;;;;;;5011205;28;20466;-70
2023/08/22 07:20:02;;;;;;;1.38;0.63;;;22.30;74.20;;;;;;5016566;28;20037;-70
2023/08/22 07:22:29;;;;;;;3.13;1.17;;;22.30;73.90;;;;;;5010372;28;20033;-71
2023/08/22 07:24:59;;;;;;;2.92;0.90;;;22.40;73.90;;;;;;5011099;28;20045;-72
2023/08/22 07:27:26;;;;;;;2.92;0.70;;;22.40;73.70;;;;;;5012535;28;20100;-69
2023/08/22 07:29:52;;;;;;;2.33;0.55;;;22.40;73.50;;;;;;5013672;28;20044;-72
2023/08/22 07:32:20;;;;;;;1.65;0.70;;;22.40;73.40;;;;;;5013157;28;20040;-71
2023/08/22 07:34:48;;;;;;;2.47;0.82;;;22.40;73.50;;;;;;5007952;28;20124;-70
2023/08/22 07:37:14;;;;;;;1.08;0.60;;;22.50;73.30;;;;;;5013310;28;20029;-71
2023/08/22 07:39:41;;;;;;;2.95;0.85;;;22.80;73.30;;;;;;5015492;28;20822;-72
2023/08/22 07:42:08;;;;;;;1.10;0.73;;;23.00;73.50;;;;;;5010565;28;20041;-71
2023/08/22 07:44:36;;;;;;;1.85;0.80;;;23.20;72.60;;;;;;5015916;28;20154;-70
2023/08/22 07:47:02;;;;;;;0.98;0.60;;;23.40;72.40;;;;;;5015903;28;20039;-71
2023/08/22 07:49:29;;;;;;;2.30;0.40;;;23.50;72.00;;;;;;5019211;28;20037;-70
2023/08/22 07:51:56;;;;;;;1.17;0.50;;;23.80;71.90;;;;;;5015901;28;20083;-70
2023/08/22 07:54:22;;;;;;;1.55;1.00;;;24.10;71.60;;;;;;5016943;28;20037;-71
2023/08/22 07:56:55;;;;;;;;;;;24.30;71.10;;;;;;5016617;28;20339;-70
2023/08/22 07:59:22;;;;;;;2.35;0.70;;;24.50;70.90;;;;;;5022149;28;19912;-71
2023/08/22 08:01:49;;;;;;;0.77;0.70;;;24.80;70.90;;;;;;5008631;28;20115;-70
2023/08/22 08:04:16;;;;;;;2.05;0.80;;;25.00;70.50;;;;;;5012810;28;20068;-72
2023/08/22 08:06:43;;;;;;;2.17;0.60;;;25.10;70.00;;;;;;5015313;28;20029;-70
2023/08/22 08:09:11;;;;;;;1.25;0.45;;;25.20;69.70;;;;;;5008939;28;20041;-71
2023/08/22 08:11:37;;;;;;;1.95;0.70;;;25.30;69.40;;;;;;5005394;28;21936;-72
2023/08/22 08:14:03;;;;;;;3.13;0.98;;;25.40;69.20;;;;;;5008592;28;20072;-72
2023/08/22 08:16:32;;;;;;;1.40;0.73;;;25.40;69.00;;;;;;5014147;28;20393;-70
2023/08/22 08:18:59;;;;;;;1.58;0.47;;;25.40;68.80;;;;;;5004008;28;20030;-69
2023/08/22 08:21:25;;;;;;;1.38;0.75;;;25.40;68.70;;;;;;5008241;28;20076;-69
2023/08/22 08:23:52;;;;;;;2.58;0.60;;;25.40;68.70;;;;;;5007694;28;20057;-70
2023/08/22 08:26:18;;;;;;;1.48;0.50;;;25.40;68.50;;;;;;5012830;28;20369;-71
2023/08/22 08:28:45;;;;;;;0.65;0.43;;;25.40;68.40;;;;;;5007523;28;20115;-71
2023/08/22 08:31:12;;;;;;;2.03;0.80;;;25.40;68.40;;;;;;5008259;28;20153;-71
2023/08/22 08:33:38;;;;;;;2.38;0.80;;;25.40;68.20;;;;;;5008642;28;20099;-70
2023/08/22 08:36:06;;;;;;;2.30;0.80;;;25.40;68.20;;;;;;5008918;28;20022;-74
2023/08/22 08:38:33;;;;;;;1.60;0.75;;;25.30;68.10;;;;;;5005111;28;20049;-71
2023/08/22 08:41:02;;;;;;;2.15;0.60;;;25.30;68.00;;;;;;5015999;28;20554;-72
2023/08/22 08:43:31;;;;;;;2.20;0.70;;;25.30;67.80;;;;;;5010387;28;20038;-69
2023/08/22 08:45:58;;;;;;;0.82;0.60;;;25.30;67.60;;;;;;5013662;28;20036;-72
2023/08/22 08:48:25;;;;;;;1.20;0.88;;;25.30;67.50;;;;;;5015915;28;20145;-71
2023/08/22 08:50:55;;;;;;;3.35;1.10;;;25.40;67.90;;;;;;5014449;28;20058;-70
2023/08/22 08:53:22;;;;;;;2.00;0.90;;;25.30;67.10;;;;;;5008360;28;20038;-72
2023/08/22 08:55:48;;;;;;;2.65;0.80;;;25.30;67.10;;;;;;5009901;28;20041;-71
2023/08/22 08:58:14;;;;;;;2.92;0.93;;;25.30;66.90;;;;;;5008638;28;20504;-69
2023/08/22 09:00:53;;;;;;;3.10;0.82;;;25.40;66.60;;;;;;5009625;28;20045;-70
2023/08/22 09:03:20;;;;;;;2.33;1.08;;;25.50;66.20;;;;;;5015942;28;20631;-70
2023/08/22 09:05:47;;;;;;;1.95;0.98;;;25.60;65.90;;;;;;5013642;28;20041;-70
2023/08/22 09:08:20;;;;;;;2.38;0.93;;;25.60;65.50;;;;;;5010038;28;20537;-71
2023/08/22 09:10:51;;;;;;;1.98;0.80;;;25.70;65.30;;;;;;5005008;28;20053;-70
2023/08/22 09:13:25;;;;;;;3.45;0.88;;;25.80;65.00;;;;;;5012412;28;20102;-70
2023/08/22 09:16:00;;;;;;;1.70;1.00;;;25.80;64.70;;;;;;5012194;28;20041;-70
2023/08/22 09:18:28;;;;;;;3.00;0.90;;;25.70;64.50;;;;;;5018682;28;20065;-70
2023/08/22 09:21:03;;;;;;;2.92;1.08;;;25.70;64.60;;;;;;5011763;28;20082;-69
2023/08/22 09:23:31;;;;;;;3.45;1.10;;;25.60;64.50;;;;;;5011585;28;20055;-69
2023/08/22 09:25:59;;;;;;;3.97;0.90;;;25.60;64.50;;;;;;5010742;28;20030;-70
2023/08/22 09:28:26;;;;;;;1.92;0.98;;;25.60;64.50;;;;;;5013447;28;20116;-71
2023/08/22 09:30:54;;;;;;;2.70;1.00;;;25.50;64.40;;;;;;5004707;28;20080;-70
2023/08/22 09:33:20;;;;;;;2.28;1.02;;;25.60;64.40;;;;;;5011906;28;20379;-72
2023/08/22 09:35:48;;;;;;;4.00;1.73;;;25.60;64.20;;;;;;5013755;28;20046;-70
2023/08/22 09:38:14;;;;;;;3.72;1.30;;;25.60;64.10;;;;;;5010790;28;20398;-71
2023/08/22 09:40:55;;;;;;;2.88;1.15;;;25.60;63.90;;;;;;5003110;28;20044;-70
2023/08/22 09:43:22;;;;;;;2.42;1.20;;;25.60;63.60;;;;;;5010653;28;20049;-70
2023/08/22 09:45:51;;;;;;;3.08;1.27;;;25.70;63.60;;;;;;5014491;28;20029;-71
2023/08/22 09:48:24;;;;;;;3.35;1.45;;;25.60;63.40;;;;;;5016181;28;20855;-70
2023/08/22 09:50:59;;;;;;;2.65;1.15;;;25.60;63.30;;;;;;5011587;28;20045;-70
2023/08/22 09:53:26;;;;;;;5.18;1.42;;;25.60;63.30;;;;;;5011939;28;20029;-70
2023/08/22 09:55:53;;;;;;;3.92;1.40;;;25.60;63.30;;;;;;5019141;28;20087;-73
2023/08/22 09:58:20;;;;;;;4.82;1.73;;;25.70;63.30;;;;;;5016756;28;20104;-70
2023/08/22 10:00:48;;;;;;;4.88;1.73;;;25.70;63.20;;;;;;5018337;28;20493;-70
2023/08/22 10:03:16;;;;;;;7.97;1.80;;;25.70;63.00;;;;;;5017985;28;20041;-70
2023/08/22 10:05:43;;;;;;;4.30;1.50;;;25.70;62.90;;;;;;5015041;28;20033;-70
2023/08/22 10:08:10;;;;;;;4.88;1.27;;;25.70;62.60;;;;;;5012443;28;20084;-70
2023/08/22 10:10:43;;;;;;;3.72;1.65;;;25.70;62.50;;;;;;5009121;28;20517;-71
2023/08/22 10:13:11;;;;;;;4.18;1.38;;;25.70;62.40;;;;;;4996750;28;20482;-73
2023/08/22 10:15:39;;;;;;;4.20;1.55;;;25.70;62.30;;;;;;5009554;28;20029;-73
2023/08/22 10:18:13;;;;;;;3.60;1.63;;;25.80;62.10;;;;;;5004516;28;20042;-71
2023/08/22 10:20:41;;;;;;;3.20;1.20;;;25.80;61.90;;;;;;5007008;28;20029;-73
2023/08/22 10:23:09;;;;;;;6.22;1.80;;;25.80;61.80;;;;;;5009958;28;20049;-71
2023/08/22 10:25:48;;;;;;;4.32;1.73;;;25.80;61.80;;;;;;5013982;28;20070;-71
2023/08/22 10:28:17;;;;;;;4.03;1.48;;;25.80;61.60;;;;;;5007293;28;20566;-72
2023/08/22 10:31:02;;;;;;;6.05;1.42;;;25.80;61.70;;;;;;5004399;28;20465;-71
2023/08/22 10:33:29;;;;;;;3.83;1.25;;;25.80;61.30;;;;;;5013427;28;20037;-73
2023/08/22 10:36:14;;;;;;;6.20;1.70;;;25.90;61.40;;;;;;5007281;28;20025;-73
2023/08/22 10:38:52;;;;;;;2.63;1.42;;;25.90;61.20;;;;;;5014467;28;20049;-72
2023/08/22 10:41:42;;;;;;;3.17;1.42;;;25.90;61.20;;;;;;5020448;28;20391;-71
2023/08/22 10:44:26;;;;;;;4.95;1.50;;;26.00;61.40;;;;;;5010772;28;20041;-71
2023/08/22 10:47:22;;;;;;;4.10;1.38;;;26.00;61.20;;;;;;5003819;28;20034;-74
2023/08/22 10:49:50;;;;;;;3.35;1.63;;;26.00;61.10;;;;;;5012654;28;20072;-70
2023/08/22 10:52:17;;;;;;;4.53;1.58;;;26.10;61.30;;;;;;5020139;28;20074;-73
2023/08/22 10:55:06;;;;;;;4.28;1.50;;;26.10;61.20;;;;;;5015090;28;20487;-73
2023/08/22 10:57:33;;;;;;;4.35;1.55;;;26.10;60.90;;;;;;5014473;28;20033;-72
2023/08/22 11:00:00;;;;;;;3.65;1.35;;;26.20;60.90;;;;;;5017744;28;20033;-71
2023/08/22 11:02:32;;;;;;;3.72;1.35;;;26.40;60.80;;;;;;5015676;28;20030;-72
2023/08/22 11:05:03;;;;;;;3.58;1.63;;;26.40;60.60;;;;;;5008937;28;20910;-73
2023/08/22 11:07:31;;;;;;;2.22;0.85;;;26.60;60.30;;;;;;5011276;28;20026;-74
2023/08/22 11:10:00;;;;;;;3.13;1.00;;;26.70;60.10;;;;;;5001035;28;20577;-73
2023/08/22 11:12:28;;;;;;;3.15;1.27;;;26.80;59.60;;;;;;5015591;28;20634;-71
2023/08/22 11:14:57;;;;;;;3.72;1.42;;;26.90;59.40;;;;;;5011471;28;20065;-71
2023/08/22 11:17:24;;;;;;;3.75;1.90;;;27.00;59.30;;;;;;5010738;28;20503;-73
2023/08/22 11:19:55;;;;;;;2.42;0.88;;;27.10;59.20;;;;;;5006293;28;20030;-70
2023/08/22 11:22:22;;;;;;;1.98;1.02;;;27.10;58.80;;;;;;5013759;28;20052;-73
2023/08/22 11:24:50;;;;;;;3.28;1.40;;;27.10;58.80;;;;;;5007684;28;20037;-72
2023/08/22 11:27:19;;;;;;;3.15;1.20;;;27.30;58.60;;;;;;5015630;28;20029;-72
2023/08/22 11:29:50;;;;;;;4.40;0.95;;;27.50;58.40;;;;;;5018967;28;20902;-71
2023/08/22 11:32:24;;;;;;;2.45;0.90;;;27.60;58.00;;;;;;5015261;28;20032;-71
2023/08/22 11:34:55;;;;;;;1.77;1.00;;;27.60;57.80;;;;;;5021379;28;20109;-72
2023/08/22 11:37:22;;;;;;;1.92;0.88;;;27.70;57.70;;;;;;5017144;28;20045;-70
2023/08/22 11:39:49;;;;;;;1.67;0.82;;;27.80;57.50;;;;;;5009471;28;20088;-72
2023/08/22 11:42:18;;;;;;;3.75;0.98;;;27.70;57.20;;;;;;5015530;28;20600;-71
2023/08/22 11:45:08;;;;;;;2.13;0.70;;;27.80;57.30;;;;;;5012226;28;20037;-73
2023/08/22 11:47:44;;;;;;;2.00;0.82;;;27.80;57.10;;;;;;5010598;28;20037;-71
2023/08/22 11:50:24;;;;;;;2.60;0.88;;;27.80;57.10;;;;;;5011770;28;20123;-71
2023/08/22 11:53:07;;;;;;;3.80;1.10;;;27.80;57.10;;;;;;5013338;28;20037;-73
2023/08/22 11:55:35;;;;;;;0.73;0.43;;;27.80;57.10;;;;;;5012291;28;20041;-72
2023/08/22 11:58:05;;;;;;;2.53;1.05;;;27.80;57.10;;;;;;5007403;28;20030;-71
2023/08/22 12:00:34;;;;;;;2.55;0.82;;;27.80;57.00;;;;;;5012329;28;20033;-71
2023/08/22 12:03:05;;;;;;;2.72;1.17;;;27.90;57.00;;;;;;5003368;28;20021;-71
2023/08/22 12:05:48;;;;;;;1.55;0.60;;;28.00;56.80;;;;;;5008762;28;20235;-71
2023/08/22 12:08:15;;;;;;;;;;;28.00;56.60;;;;;;5006835;28;20504;-70
2023/08/22 12:10:52;;;;;;;2.58;0.90;;;28.10;56.80;;;;;;5000439;28;19913;-72
2023/08/22 12:13:20;;;;;;;2.65;1.02;;;28.30;56.70;;;;;;5006606;28;20033;-73
2023/08/22 12:15:47;;;;;;;1.73;0.80;;;28.50;56.60;;;;;;5009118;28;20076;-71
2023/08/22 12:18:14;;;;;;;2.25;0.73;;;28.70;56.20;;;;;;5012160;28;20191;-70
2023/08/22 12:20:41;;;;;;;0.82;0.57;;;28.90;55.90;;;;;;5004878;28;20107;-72
2023/08/22 12:23:13;;;;;;;1.30;0.70;;;29.20;55.60;;;;;;5011122;28;20072;-71
2023/08/22 12:25:41;;;;;;;1.60;0.80;;;29.40;55.10;;;;;;5008285;28;20045;-71
2023/08/22 12:28:09;;;;;;;2.25;0.93;;;29.60;54.60;;;;;;5007491;28;20026;-72
2023/08/22 12:30:39;;;;;;;1.00;0.60;;;29.70;54.20;;;;;;5009601;28;20037;-72
2023/08/22 12:33:05;;;;;;;3.10;1.25;;;29.90;54.00;;;;;;5006377;28;20037;-71
2023/08/22 12:35:34;;;;;;;5.95;1.20;;;30.10;53.90;;;;;;5013399;28;20046;-73
2023/08/22 12:38:00;;;;;;;2.05;0.85;;;30.20;53.60;;;;;;5011003;28;20044;-72
2023/08/22 12:40:27;;;;;;;1.48;0.75;;;30.40;53.50;;;;;;5016953;28;20030;-72
2023/08/22 12:42:54;;;;;;;1.98;0.90;;;30.40;53.30;;;;;;5016919;28;20384;-73
2023/08/22 12:45:22;;;;;;;2.67;1.20;;;30.60;53.10;;;;;;5011336;28;20300;-73
2023/08/22 12:47:49;;;;;;;2.90;1.17;;;30.70;52.80;;;;;;5010489;28;20497;-71
2023/08/22 12:50:15;;;;;;;2.17;0.75;;;30.80;52.60;;;;;;5011464;28;20056;-71
2023/08/22 12:52:42;;;;;;;3.33;1.02;;;30.90;52.50;;;;;;5008678;28;20034;-72
2023/08/22 12:55:11;;;;;;;2.22;1.00;;;31.00;52.40;;;;;;5006718;28;20152;-72